Time;durP1;ratioP1;P1;durP2;ratioP2;P2;SDS_P1;SDS_P2;PMS_P1;PMS_P2;Temp;Humidity;BMP_temperature;BMP_pressure;BME280_temperature;BME280_humidity;BME280_pressure;Samples;Min_cycle;Max_cycle;Signal;HPM_P1;HPM_P2
2021/12/09 00:01:33;;;;;;;;;;;3.80;99.90;;;;;;5021122;28;20008;-77
2021/12/09 00:04:00;;;;;;;;;;;3.80;99.90;;;;;;5020844;28;19914;-76
2021/12/09 00:06:28;;;;;;;;;;;3.80;99.90;;;;;;5021150;28;20001;-76
2021/12/09 00:08:59;;;;;;;;;;;3.80;99.90;;;;;;5020990;28;20282;-76
2021/12/09 00:11:25;;;;;;;;;;;3.90;99.90;;;;;;5020959;28;19964;-76
2021/12/09 00:13:51;;;;;;;;;;;3.90;99.90;;;;;;5040546;28;19921;-76
2021/12/09 00:16:17;;;;;;;;;;;3.90;99.90;;;;;;5026657;28;19959;-76
2021/12/09 00:18:43;;;;;;;;;;;3.90;99.90;;;;;;5020901;28;20333;-76
2021/12/09 00:21:09;;;;;;;;;;;3.90;99.90;;;;;;5034968;28;19917;-76
2021/12/09 00:23:34;;;;;;;;;;;4.00;99.90;;;;;;5040657;28;19921;-76
2021/12/09 00:26:00;;;;;;;;;;;4.00;99.90;;;;;;5040639;28;20285;-77
2021/12/09 00:28:26;;;;;;;;;;;4.00;99.90;;;;;;5040480;28;19932;-76
2021/12/09 00:30:51;;;;;;;;;;;4.00;99.90;;;;;;5022492;28;19909;-76
2021/12/09 00:33:17;;;;;;;;;;;4.00;99.90;;;;;;5032320;28;19914;-75
2021/12/09 00:35:53;;;;;;;;;;;4.10;99.90;;;;;;5020531;28;20078;-75
2021/12/09 00:38:22;;;;;;;;;;;4.00;99.90;;;;;;5020498;28;20289;-76
2021/12/09 00:40:49;;;;;;;;;;;4.10;99.90;;;;;;5020325;28;19932;-76
2021/12/09 00:43:17;;;;;;;;;;;4.10;99.90;;;;;;5020342;28;19909;-76
2021/12/09 00:45:43;;;;;;;;;;;4.10;99.90;;;;;;5020232;28;20404;-76
2021/12/09 00:48:09;;;;;;;;;;;4.10;99.90;;;;;;5002530;28;19963;-76
2021/12/09 00:50:34;;;;;;;;;;;4.10;99.90;;;;;;5020333;28;19909;-76
2021/12/09 00:53:00;;;;;;;;;;;4.10;99.90;;;;;;5018594;28;19910;-77
2021/12/09 00:55:27;;;;;;;;;;;4.00;99.90;;;;;;5018649;28;20436;-75
2021/12/09 00:57:53;;;;;;;;;;;4.00;99.90;;;;;;5020250;28;20009;-77
2021/12/09 01:00:20;;;;;;;;;;;4.00;99.90;;;;;;5020350;28;19949;-76
2021/12/09 01:02:46;;;;;;;;;;;4.00;99.90;;;;;;5020079;28;19913;-77
2021/12/09 01:05:12;;;;;;;;;;;4.00;99.90;;;;;;5019826;28;19916;-76
2021/12/09 01:07:38;;;;;;;;;;;4.00;99.90;;;;;;5020208;28;19965;-76
2021/12/09 01:10:06;;;;;;;;;;;4.00;99.90;;;;;;5019799;28;19972;-77
2021/12/09 01:12:32;;;;;;;;;;;4.00;99.90;;;;;;5028432;28;19964;-76
2021/12/09 01:14:58;;;;;;;;;;;4.00;99.90;;;;;;5023022;28;19932;-76
2021/12/09 01:17:23;;;;;;;;;;;4.00;99.90;;;;;;5019662;28;19925;-75
2021/12/09 01:19:50;;;;;;;;;;;4.00;99.90;;;;;;5023432;28;19932;-77
2021/12/09 01:22:16;;;;;;;;;;;4.00;99.90;;;;;;5039995;28;19962;-76
2021/12/09 01:24:41;;;;;;;;;;;4.00;99.90;;;;;;5021663;28;19909;-75
2021/12/09 01:27:07;;;;;;;;;;;4.00;99.90;;;;;;5021524;28;19932;-77
2021/12/09 01:29:39;;;;;;;;;;;4.00;99.90;;;;;;5039254;28;19944;-78
2021/12/09 01:32:07;;;;;;;;;;;3.90;99.90;;;;;;5039143;28;19909;-76
2021/12/09 01:34:34;;;;;;;;;;;3.90;99.90;;;;;;5039215;28;19963;-76
2021/12/09 01:37:00;;;;;;;;;;;3.90;99.90;;;;;;5037781;28;19920;-76
2021/12/09 01:39:28;;;;;;;;;;;3.90;99.90;;;;;;5021397;28;20288;-76
2021/12/09 01:41:53;;;;;;;;;;;3.90;99.90;;;;;;5020501;28;19913;-76
2021/12/09 01:44:19;;;;;;;;;;;3.90;99.90;;;;;;5020831;28;19910;-77
2021/12/09 01:46:45;;;;;;;;;;;3.90;99.90;;;;;;5019345;28;19968;-76
2021/12/09 01:49:11;;;;;;;;;;;3.90;99.90;;;;;;5019059;28;20370;-77
2021/12/09 01:51:36;;;;;;;;;;;3.90;99.90;;;;;;5019267;28;20362;-76
2021/12/09 01:54:02;;;;;;;;;;;3.90;99.90;;;;;;5018954;28;20003;-76
2021/12/09 01:56:28;;;;;;;;;;;3.90;99.90;;;;;;5019183;28;19914;-76
2021/12/09 01:58:58;;;;;;;;;;;3.90;99.90;;;;;;5001274;28;19913;-76
2021/12/09 02:01:24;;;;;;;;;;;3.90;99.90;;;;;;5019098;28;19935;-76
2021/12/09 02:03:50;;;;;;;;;;;3.90;99.90;;;;;;5018635;28;19997;-76
2021/12/09 02:06:16;;;;;;;;;;;3.80;99.90;;;;;;5018506;28;19909;-76
2021/12/09 02:08:43;;;;;;;;;;;3.80;99.90;;;;;;5001084;28;19910;-77
2021/12/09 02:11:08;;;;;;;;;;;3.80;99.90;;;;;;5019013;28;20488;-77
2021/12/09 02:13:34;;;;;;;;;;;3.80;99.90;;;;;;5036865;28;19956;-76
2021/12/09 02:16:00;;;;;;;;;;;3.80;99.90;;;;;;5009376;28;19910;-76
2021/12/09 02:18:25;;;;;;;;;;;3.80;99.90;;;;;;5000852;28;19964;-76
2021/12/09 02:21:05;;;;;;;;;;;3.80;99.90;;;;;;5029851;28;19972;-76
2021/12/09 02:23:31;;;;;;;;;;;3.80;99.90;;;;;;5038488;28;19913;-76
2021/12/09 02:25:57;;;;;;;;;;;3.80;99.90;;;;;;5020423;28;20012;-76
2021/12/09 02:28:22;;;;;;;;;;;3.80;99.90;;;;;;5038279;28;19943;-76
2021/12/09 02:30:48;;;;;;;;;;;3.80;99.90;;;;;;5038295;28;19909;-77
2021/12/09 02:33:13;;;;;;;;;;;3.70;99.90;;;;;;5038017;28;19913;-76
2021/12/09 02:35:39;;;;;;;;;;;3.70;99.90;;;;;;5020515;28;20441;-77
2021/12/09 02:38:07;;;;;;;;;;;3.70;99.90;;;;;;5038021;28;19913;-77
2021/12/09 02:40:33;;;;;;;;;;;3.70;99.90;;;;;;5038017;28;19909;-76
2021/12/09 02:42:59;;;;;;;;;;;3.70;99.90;;;;;;5037971;28;19909;-76
2021/12/09 02:45:25;;;;;;;;;;;3.70;99.90;;;;;;5020222;28;19909;-76
2021/12/09 02:47:51;;;;;;;;;;;3.70;99.90;;;;;;5020011;28;19916;-76
2021/12/09 02:50:16;;;;;;;;;;;3.70;99.90;;;;;;5037976;28;19909;-77
2021/12/09 02:52:42;;;;;;;;;;;3.70;99.90;;;;;;5037939;28;19909;-76
2021/12/09 02:55:08;;;;;;;;;;;3.70;99.90;;;;;;5037842;28;19916;-77
2021/12/09 02:57:33;;;;;;;;;;;3.80;99.90;;;;;;5017960;28;19914;-76
2021/12/09 02:59:59;;;;;;;;;;;3.70;99.90;;;;;;5018232;28;19916;-76
2021/12/09 03:02:25;;;;;;;;;;;3.70;99.90;;;;;;5017767;28;19917;-76
2021/12/09 03:04:53;;;;;;;;;;;3.70;99.90;;;;;;5018070;28;19911;-76
2021/12/09 03:07:23;;;;;;;;;;;3.60;99.90;;;;;;5006752;28;19953;-76
2021/12/09 03:09:52;;;;;;;;;;;3.70;99.90;;;;;;5019781;28;19948;-76
2021/12/09 03:12:19;;;;;;;;;;;3.60;99.90;;;;;;5037524;28;19921;-77
2021/12/09 03:14:45;;;;;;;;;;;3.60;99.90;;;;;;5036237;28;19931;-76
2021/12/09 03:17:11;;;;;;;;;;;3.60;99.90;;;;;;5017554;28;20004;-76
2021/12/09 03:19:36;;;;;;;;;;;3.60;99.90;;;;;;5019458;28;19909;-76
2021/12/09 03:22:02;;;;;;;;;;;3.60;99.90;;;;;;5019841;28;20335;-77
2021/12/09 03:24:28;;;;;;;;;;;3.60;99.90;;;;;;5037374;28;20366;-76
2021/12/09 03:26:55;;;;;;;;;;;3.60;99.90;;;;;;5037550;28;19913;-76
2021/12/09 03:29:21;;;;;;;;;;;3.60;99.90;;;;;;5037449;28;19909;-76
2021/12/09 03:31:48;;;;;;;;;;;3.60;99.90;;;;;;5037297;28;19913;-76
2021/12/09 03:34:14;;;;;;;;;;;3.60;99.90;;;;;;5019572;28;19956;-75
2021/12/09 03:36:41;;;;;;;;;;;3.60;99.90;;;;;;5019991;28;19921;-76
2021/12/09 03:39:09;;;;;;;;;;;3.60;99.90;;;;;;5037299;28;19909;-76
2021/12/09 03:41:34;;;;;;;;;;;3.60;99.90;;;;;;5037326;28;19963;-76
2021/12/09 03:44:00;;;;;;;;;;;3.60;99.90;;;;;;5037389;28;19913;-76
2021/12/09 03:46:26;;;;;;;;;;;3.60;99.90;;;;;;5037359;28;19931;-76
2021/12/09 03:48:51;;;;;;;;;;;3.50;99.90;;;;;;5037326;28;19910;-76
2021/12/09 03:51:17;;;;;;;;;;;3.50;99.90;;;;;;5037402;28;19909;-76
2021/12/09 03:53:43;;;;;;;;;;;3.50;99.90;;;;;;5019323;28;19910;-76
2021/12/09 03:56:08;;;;;;;;;;;3.60;99.90;;;;;;5037339;28;19915;-76
2021/12/09 03:58:34;;;;;;;;;;;3.60;99.90;;;;;;5037162;28;19944;-76
2021/12/09 04:00:59;;;;;;;;;;;3.50;99.90;;;;;;5037367;28;20007;-76
2021/12/09 04:03:25;;;;;;;;;;;3.50;99.90;;;;;;5036883;28;19913;-75
2021/12/09 04:05:50;;;;;;;;;;;3.50;99.90;;;;;;5037130;28;19955;-76
2021/12/09 04:08:17;;;;;;;;;;;3.50;99.90;;;;;;5019273;28;20293;-76
2021/12/09 04:10:43;;;;;;;;;;;3.50;99.90;;;;;;5019371;28;19909;-76
2021/12/09 04:13:08;;;;;;;;;;;3.40;99.90;;;;;;5036951;28;19960;-76
2021/12/09 04:15:34;;;;;;;;;;;3.50;99.90;;;;;;5011096;28;19910;-76
2021/12/09 04:18:00;;;;;;;;;;;3.50;99.90;;;;;;4999264;28;19921;-77
2021/12/09 04:20:26;;;;;;;;;;;3.50;99.90;;;;;;5016780;28;19913;-77
2021/12/09 04:22:53;;;;;;;;;;;3.60;99.90;;;;;;5036929;28;19909;-76
2021/12/09 04:25:20;;;;;;;;;;;3.60;99.90;;;;;;5035595;28;19910;-77
2021/12/09 04:27:47;;;;;;;;;;;3.60;99.90;;;;;;5037412;28;19924;-77
2021/12/09 04:30:13;;;;;;;;;;;3.60;99.90;;;;;;5040554;28;19915;-76
2021/12/09 04:32:39;;;;;;;;;;;3.60;99.90;;;;;;5037415;28;19916;-76
2021/12/09 04:35:05;;;;;;;;;;;3.60;99.90;;;;;;5020775;28;20289;-77
2021/12/09 04:37:30;;;;;;;;;;;3.60;99.90;;;;;;5002936;28;19913;-76
2021/12/09 04:39:56;;;;;;;;;;;3.60;99.90;;;;;;5019287;28;19909;-76
2021/12/09 04:42:22;;;;;;;;;;;3.50;99.90;;;;;;5019045;28;19913;-76
2021/12/09 04:44:47;;;;;;;;;;;3.50;99.90;;;;;;5020427;28;19960;-77
2021/12/09 04:47:13;;;;;;;;;;;3.50;99.90;;;;;;5020338;28;19920;-77
2021/12/09 04:49:38;;;;;;;;;;;3.60;99.90;;;;;;5020682;28;19921;-76
2021/12/09 04:52:07;;;;;;;;;;;3.60;99.90;;;;;;5002880;28;19917;-76
2021/12/09 04:54:36;;;;;;;;;;;3.70;99.90;;;;;;5020227;28;20000;-77
2021/12/09 04:57:03;;;;;;;;;;;3.70;99.90;;;;;;5020040;28;19920;-76
2021/12/09 04:59:29;;;;;;;;;;;3.70;99.90;;;;;;5018908;28;19909;-76
2021/12/09 05:01:54;;;;;;;;;;;3.70;99.90;;;;;;5022914;28;19916;-77
2021/12/09 05:04:20;;;;;;;;;;;3.70;99.90;;;;;;5020370;28;20431;-76
2021/12/09 05:06:45;;;;;;;;;;;3.70;99.90;;;;;;5019891;28;19921;-76
2021/12/09 05:09:16;;;;;;;;;;;3.80;99.90;;;;;;5020181;28;20377;-76
2021/12/09 05:14:07;;;;;;;;;;;3.80;99.90;;;;;;5039650;28;20004;-76
2021/12/09 05:16:33;;;;;;;;;;;3.80;99.90;;;;;;5022961;28;19917;-76
2021/12/09 05:18:59;;;;;;;;;;;3.70;99.90;;;;;;5020186;28;19909;-76
2021/12/09 05:21:28;;;;;;;;;;;3.70;99.90;;;;;;5036033;28;19909;-76
2021/12/09 05:23:54;;;;;;;;;;;3.70;99.90;;;;;;5021736;28;19917;-76
2021/12/09 05:26:22;;;;;;;;;;;3.60;99.90;;;;;;5039268;28;19948;-76
2021/12/09 05:28:54;;;;;;;;;;;3.50;99.90;;;;;;5039616;28;19916;-76
2021/12/09 05:34:04;;;;;;;;;;;3.50;99.90;;;;;;5025390;28;19920;-76
2021/12/09 05:36:29;;;;;;;;;;;3.50;99.90;;;;;;5032680;28;19909;-76
2021/12/09 05:38:55;;;;;;;;;;;3.50;99.90;;;;;;5019005;28;20004;-76
2021/12/09 05:41:21;;;;;;;;;;;3.50;99.90;;;;;;5018697;28;20294;-76
2021/12/09 05:43:47;;;;;;;;;;;3.50;99.90;;;;;;5019318;28;20000;-77
2021/12/09 05:46:12;;;;;;;;;;;3.50;99.90;;;;;;5019175;28;19909;-77
2021/12/09 05:48:39;;;;;;;;;;;3.50;99.90;;;;;;5019010;28;19910;-76
2021/12/09 05:51:04;;;;;;;;;;;3.50;99.90;;;;;;5019042;28;20344;-76
2021/12/09 05:53:30;;;;;;;;;;;3.50;99.90;;;;;;5019141;28;19914;-76
2021/12/09 05:55:56;;;;;;;;;;;3.50;99.90;;;;;;5019034;28;19910;-76
2021/12/09 05:58:24;;;;;;;;;;;3.50;99.90;;;;;;5018971;28;19913;-76
2021/12/09 06:00:51;;;;;;;;;;;3.50;99.90;;;;;;5018903;28;19916;-75
2021/12/09 06:03:19;;;;;;;;;;;3.40;99.90;;;;;;5018593;28;19910;-75
2021/12/09 06:05:45;;;;;;;;;;;3.40;99.90;;;;;;5018797;28;19952;-75
2021/12/09 06:08:11;;;;;;;;;;;3.40;99.90;;;;;;5001079;28;19909;-75
2021/12/09 06:10:37;;;;;;;;;;;3.40;99.90;;;;;;5018827;28;20369;-75
2021/12/09 06:13:03;;;;;;;;;;;3.30;99.90;;;;;;5014758;28;19921;-75
2021/12/09 06:15:28;;;;;;;;;;;3.30;99.90;;;;;;5030441;28;20278;-76
2021/12/09 06:17:54;;;;;;;;;;;3.30;99.90;;;;;;5018148;28;19920;-77
2021/12/09 06:20:19;;;;;;;;;;;3.30;99.90;;;;;;5025932;28;19955;-76
2021/12/09 06:22:45;;;;;;;;;;;3.20;99.90;;;;;;5020348;28;19914;-77
2021/12/09 06:25:17;;;;;;;;;;;3.20;99.90;;;;;;5038320;28;19909;-76
2021/12/09 06:27:43;;;;;;;;;;;3.20;99.90;;;;;;5038162;28;19909;-76
2021/12/09 06:30:09;;;;;;;;;;;3.10;99.90;;;;;;5038353;28;19909;-76
2021/12/09 06:32:34;;;;;;;;;;;3.10;99.90;;;;;;5037895;28;19916;-77
2021/12/09 06:35:00;;;;;;;;;;;3.10;99.90;;;;;;5038212;28;20276;-77
2021/12/09 06:37:25;;;;;;;;;;;3.10;99.90;;;;;;5038026;28;19917;-77
2021/12/09 06:39:51;;;;;;;;;;;3.10;99.90;;;;;;5038244;28;19980;-77
2021/12/09 06:42:17;;;;;;;;;;;3.10;99.90;;;;;;5037813;28;20004;-77
2021/12/09 06:44:43;;;;;;;;;;;3.10;99.90;;;;;;5038184;28;19913;-76
2021/12/09 06:47:09;;;;;;;;;;;3.10;99.90;;;;;;5019971;28;20002;-76
2021/12/09 06:49:34;;;;;;;;;;;3.10;99.90;;;;;;5037982;28;19910;-76
2021/12/09 06:52:00;;;;;;;;;;;3.10;99.90;;;;;;5019760;28;19913;-77
2021/12/09 06:54:25;;;;;;;;;;;3.10;99.90;;;;;;5020108;28;20444;-76
2021/12/09 06:56:51;;;;;;;;;;;3.10;99.90;;;;;;5037691;28;19963;-76
2021/12/09 06:59:17;;;;;;;;;;;3.20;99.90;;;;;;5037992;28;19916;-77
2021/12/09 07:01:42;;;;;;;;;;;3.20;99.90;;;;;;5036589;28;19909;-76
2021/12/09 07:04:08;;;;;;;;;;;3.20;99.90;;;;;;5031555;28;19910;-76
2021/12/09 07:06:34;;;;;;;;;;;3.20;99.90;;;;;;5018141;28;19910;-77
2021/12/09 07:09:03;;;;;;;;;;;3.20;99.90;;;;;;5024618;28;19921;-76
2021/12/09 07:11:29;;;;;;;;;;;3.20;99.90;;;;;;5019449;28;19909;-76
2021/12/09 07:13:55;;;;;;;;;;;3.10;99.90;;;;;;5037702;28;20263;-77
2021/12/09 07:16:23;;;;;;;;;;;3.20;99.90;;;;;;5021702;28;21340;-76
2021/12/09 07:18:48;;;;;;;;;;;3.20;99.90;;;;;;5000354;28;19913;-76
2021/12/09 07:21:14;;;;;;;;;;;3.20;99.90;;;;;;5032349;28;19913;-76
2021/12/09 07:23:39;;;;;;;;;;;3.20;99.90;;;;;;5019916;28;19909;-76
2021/12/09 07:26:05;;;;;;;;;;;3.30;99.90;;;;;;5037280;28;19942;-76
2021/12/09 07:28:31;;;;;;;;;;;3.30;99.90;;;;;;5037538;28;19913;-76
2021/12/09 07:30:56;;;;;;;;;;;3.30;99.90;;;;;;5037343;28;20015;-76
2021/12/09 07:33:22;;;;;;;;;;;3.30;99.90;;;;;;5029080;28;19910;-77
2021/12/09 07:35:48;;;;;;;;;;;3.40;99.90;;;;;;5016569;28;19992;-76
2021/12/09 07:38:15;;;;;;;;;;;3.40;99.90;;;;;;5017637;28;20389;-77
2021/12/09 07:40:40;;;;;;;;;;;3.40;99.90;;;;;;4999729;28;19909;-76
2021/12/09 07:43:06;;;;;;;;;;;3.50;99.90;;;;;;5016241;28;19916;-77
2021/12/09 07:45:32;;;;;;;;;;;3.50;99.90;;;;;;4999961;28;19910;-76
2021/12/09 07:47:58;;;;;;;;;;;3.60;99.90;;;;;;4999540;28;19916;-77
2021/12/09 07:50:26;;;;;;;;;;;3.60;99.90;;;;;;5017501;28;19914;-76
2021/12/09 07:52:52;;;;;;;;;;;3.70;99.90;;;;;;5016266;28;19910;-77
2021/12/09 07:55:19;;;;;;;;;;;3.70;99.90;;;;;;4999613;28;20396;-77
2021/12/09 07:57:45;;;;;;;;;;;3.80;99.90;;;;;;5017441;28;19914;-77
2021/12/09 08:00:13;;;;;;;;;;;3.90;99.90;;;;;;5017384;28;19913;-77
2021/12/09 08:02:39;;;;;;;;;;;3.90;99.90;;;;;;5023631;28;19910;-77
2021/12/09 08:05:05;;;;;;;;;;;4.00;99.90;;;;;;5025969;28;19909;-77
2021/12/09 08:07:31;;;;;;;;;;;4.00;99.90;;;;;;5021202;28;19959;-77
2021/12/09 08:09:56;;;;;;;;;;;4.10;99.90;;;;;;5003261;28;20008;-76
2021/12/09 08:12:22;;;;;;;;;;;4.10;99.90;;;;;;5029478;28;19932;-76
2021/12/09 08:14:47;;;;;;;;;;;4.00;99.90;;;;;;5021073;28;20032;-75
2021/12/09 08:19:59;;;;;;;;;;;4.00;99.90;;;;;;5027728;28;19964;-75
2021/12/09 08:22:25;;;;;;;;;;;4.00;99.90;;;;;;5021099;28;19909;-75
2021/12/09 08:24:54;;;;;;;;;;;4.10;99.90;;;;;;5035495;28;19952;-75
2021/12/09 08:27:23;;;;;;;;;;;4.20;99.90;;;;;;5021942;28;19935;-76
2021/12/09 08:29:48;;;;;;;;;;;4.20;99.90;;;;;;5039599;28;19909;-76
2021/12/09 08:32:14;;;;;;;;;;;4.30;99.90;;;;;;5039818;28;20051;-76
2021/12/09 08:34:40;;;;;;;;;;;4.30;99.90;;;;;;5039835;28;19970;-75
2021/12/09 08:37:05;;;;;;;;;;;4.40;99.90;;;;;;5021421;28;20296;-76
2021/12/09 08:39:31;;;;;;;;;;;4.40;99.90;;;;;;5038347;28;19909;-75
2021/12/09 08:41:57;;;;;;;;;;;4.50;99.90;;;;;;5010853;28;19919;-75
2021/12/09 08:44:22;;;;;;;;;;;4.50;99.90;;;;;;5020350;28;19960;-75
2021/12/09 08:46:48;;;;;;;;;;;4.60;99.90;;;;;;5033830;28;19959;-75
2021/12/09 08:49:14;;;;;;;;;;;4.60;99.90;;;;;;5040012;28;20015;-75
2021/12/09 08:51:39;;;;;;;;;;;4.70;99.90;;;;;;5025568;28;20354;-76
2021/12/09 08:54:06;;;;;;;;;;;4.70;99.90;;;;;;5024990;28;19959;-76
2021/12/09 08:56:31;;;;;;;;;;;4.70;99.90;;;;;;5036670;28;19910;-76
2021/12/09 08:58:57;;;;;;;;;;;4.80;99.90;;;;;;5020062;28;19910;-76
2021/12/09 09:01:22;;;;;;;;;;;4.80;99.90;;;;;;5035861;28;20449;-76
2021/12/09 09:03:48;;;;;;;;;;;4.90;99.90;;;;;;5039755;28;19913;-75
2021/12/09 09:06:14;;;;;;;;;;;5.00;99.90;;;;;;5039848;28;19913;-77
2021/12/09 09:08:39;;;;;;;;;;;5.00;99.90;;;;;;5036969;28;19918;-76
2021/12/09 09:11:05;;;;;;;;;;;5.10;99.90;;;;;;5019911;28;20281;-76
2021/12/09 09:13:31;;;;;;;;;;;5.10;99.90;;;;;;5038962;28;19959;-76
2021/12/09 09:15:56;;;;;;;;;;;5.20;99.90;;;;;;5010707;28;19913;-76
2021/12/09 09:18:22;;;;;;;;;;;5.30;99.90;;;;;;5019494;28;19917;-76
2021/12/09 09:20:48;;;;;;;;;;;5.40;99.90;;;;;;5030575;28;19913;-76
2021/12/09 09:23:16;;;;;;;;;;;5.40;99.90;;;;;;5021848;28;19914;-76
2021/12/09 09:25:42;;;;;;;;;;;5.50;99.90;;;;;;5018202;28;20274;-76
2021/12/09 09:28:08;;;;;;;;;;;5.60;99.90;;;;;;5019611;28;19917;-78
2021/12/09 09:30:36;;;;;;;;;;;5.60;99.90;;;;;;5027596;28;19919;-76
2021/12/09 09:33:03;;;;;;;;;;;5.60;99.90;;;;;;5017893;28;19915;-76
2021/12/09 09:35:29;;;;;;;;;;;5.60;99.90;;;;;;5038699;28;19916;-77
2021/12/09 09:37:55;;;;;;;;;;;5.70;99.90;;;;;;5038409;28;19913;-76
2021/12/09 09:40:28;;;;;;;;;;;5.70;99.90;;;;;;5020154;28;19909;-77
2021/12/09 09:43:25;;;;;;;;;;;5.70;99.90;;;;;;5020208;28;19909;-75
2021/12/09 09:45:43;;;;;;;;;;;5.80;99.90;;;;;;5022380;28;19975;-73
2021/12/09 09:48:11;;;;;;;;;;;5.90;99.90;;;;;;5027643;28;20362;-76
2021/12/09 09:50:37;;;;;;;;;;;5.90;99.90;;;;;;5023286;28;19914;-76
2021/12/09 09:53:02;;;;;;;;;;;6.10;99.90;;;;;;5019068;28;19916;-74
2021/12/09 09:55:28;;;;;;;;;;;6.10;99.90;;;;;;5018860;28;19910;-75
2021/12/09 09:57:54;;;;;;;;;;;6.20;99.90;;;;;;5017734;28;19917;-77
2021/12/09 10:00:20;;;;;;;;;;;6.30;99.90;;;;;;5027509;28;19909;-76
2021/12/09 10:02:52;;;;;;;;;;;6.30;99.90;;;;;;5018710;28;19915;-73
2021/12/09 10:05:22;;;;;;;;;;;6.40;99.90;;;;;;5018759;28;19909;-75
2021/12/09 10:07:48;;;;;;;;;;;6.40;99.90;;;;;;5032677;28;19920;-75
2021/12/09 10:10:14;;;;;;;;;;;6.50;99.90;;;;;;5037822;28;19916;-76
2021/12/09 10:12:56;;;;;;;;;;;6.40;99.90;;;;;;5037176;28;19925;-76
2021/12/09 10:15:31;;;;;;;;;;;6.50;99.90;;;;;;5037230;28;19913;-76
2021/12/09 10:17:57;;;;;;;;;;;6.50;99.90;;;;;;5033354;28;19914;-76
2021/12/09 10:20:40;;;;;;;;;;;6.50;99.90;;;;;;5037407;28;19920;-77
2021/12/09 10:23:21;;;;;;;;;;;6.50;99.90;;;;;;5038137;28;20044;-76
2021/12/09 10:25:52;;;;;;;;;;;6.60;99.90;;;;;;5035625;28;20302;-76
2021/12/09 10:28:22;;;;;;;;;;;6.60;99.90;;;;;;5019778;28;19909;-77
2021/12/09 10:31:08;;;;;;;;;;;6.70;99.90;;;;;;5037363;28;20061;-76
2021/12/09 10:33:59;;;;;;;;;;;6.70;99.90;;;;;;5017415;28;19920;-75
2021/12/09 10:36:43;;;;;;;;;;;6.80;99.90;;;;;;5019097;28;20340;-77
2021/12/09 10:39:46;;;;;;;;;;;6.70;99.90;;;;;;5018135;28;19921;-76
2021/12/09 10:42:17;;;;;;;;;;;6.80;99.90;;;;;;4958479;28;20329;-76
2021/12/09 10:44:42;;;;;;;;;;;6.80;99.90;;;;;;5020817;28;19917;-76
2021/12/09 10:47:13;;;;;;;;;;;6.90;99.90;;;;;;5032546;28;19913;-76
2021/12/09 10:50:15;;;;;;;;;;;6.90;99.90;;;;;;5028893;28;20412;-76
2021/12/09 10:52:48;;;;;;;;;;;6.90;99.90;;;;;;5037180;28;19959;-80
2021/12/09 10:55:22;;;;;;;;;;;7.00;99.90;;;;;;5037234;28;19909;-77
2021/12/09 10:57:56;;;;;;;;;;;7.10;99.90;;;;;;5037605;28;19959;-79
2021/12/09 11:00:26;;;;;;;;;;;7.10;99.90;;;;;;5037643;28;19964;-76
2021/12/09 11:02:56;;;;;;;;;;;7.10;99.90;;;;;;5036164;28;19932;-78
2021/12/09 11:05:22;;;;;;;;;;;7.20;99.90;;;;;;5033719;28;19909;-76
2021/12/09 11:07:48;;;;;;;;;;;7.20;99.90;;;;;;5017817;28;19913;-76
2021/12/09 11:10:23;;;;;;;;;;;7.30;99.90;;;;;;5016362;28;20301;-76
2021/12/09 11:12:53;;;;;;;;;;;7.40;99.90;;;;;;5030021;28;19921;-76
2021/12/09 11:15:21;;;;;;;;;;;7.40;99.90;;;;;;5031294;28;19916;-76
2021/12/09 11:17:49;;;;;;;;;;;7.40;99.90;;;;;;5016687;28;19914;-77
2021/12/09 11:20:35;;;;;;;;;;;7.40;99.90;;;;;;5015678;28;20397;-77
2021/12/09 11:23:03;;;;;;;;;;;7.40;99.90;;;;;;5013606;28;19937;-77
2021/12/09 11:25:33;;;;;;;;;;;7.50;99.90;;;;;;5036674;28;19909;-78
2021/12/09 11:28:09;;;;;;;;;;;7.50;99.90;;;;;;5036771;28;19996;-78
2021/12/09 11:30:54;;;;;;;;;;;7.60;99.90;;;;;;5035225;28;20000;-79
2021/12/09 11:33:31;;;;;;;;;;;7.60;99.90;;;;;;5012285;28;19943;-79
2021/12/09 11:35:57;;;;;;;;;;;7.60;99.90;;;;;;5033316;28;19909;-79
2021/12/09 11:38:43;;;;;;;;;;;7.60;99.90;;;;;;5040596;28;19913;-77
2021/12/09 11:41:27;;;;;;;;;;;7.60;99.90;;;;;;5041016;28;20008;-79
2021/12/09 11:43:52;;;;;;;;;;;7.60;99.90;;;;;;5011073;28;19917;-79
2021/12/09 11:46:18;;;;;;;;;;;7.70;99.90;;;;;;5032913;28;19909;-77
2021/12/09 11:48:44;;;;;;;;;;;7.80;99.90;;;;;;5020036;28;19920;-77
2021/12/09 11:51:09;;;;;;;;;;;7.80;99.90;;;;;;5024977;28;19960;-77
2021/12/09 11:53:38;;;;;;;;;;;7.80;99.90;;;;;;5030772;28;20401;-78
2021/12/09 11:56:29;;;;;;;;;;;7.80;99.90;;;;;;5027342;28;19909;-77
2021/12/09 12:29:28;;;;;;;;;;;8.30;99.90;;;;;;5028506;28;19909;-77
2021/12/09 12:40:32;;;;;;;;;;;8.40;99.90;;;;;;5039474;28;19909;-77
2021/12/09 12:45:38;;;;;;;;;;;8.40;99.90;;;;;;5020587;28;19913;-78
2021/12/09 12:48:30;;;;;;;;;;;8.30;99.90;;;;;;5037135;28;20328;-78
2021/12/09 12:51:05;;;;;;;;;;;8.30;99.90;;;;;;5039841;28;20281;-77
2021/12/09 12:53:35;;;;;;;;;;;8.30;99.90;;;;;;5040013;28;19910;-77
2021/12/09 12:56:13;;;;;;;;;;;8.20;99.90;;;;;;5040007;28;20450;-77
2021/12/09 12:58:39;;;;;;;;;;;8.10;99.90;;;;;;5039796;28;19913;-78
2021/12/09 13:01:13;;;;;;;;;;;8.20;99.90;;;;;;5039842;28;19915;-77
2021/12/09 13:03:45;;;;;;;;;;;8.20;99.90;;;;;;5039510;28;19909;-78
2021/12/09 13:06:15;;;;;;;;;;;8.30;99.90;;;;;;5021909;28;19944;-78
2021/12/09 13:08:52;;;;;;;;;;;8.30;99.90;;;;;;5039526;28;19909;-78
2021/12/09 13:11:38;;;;;;;;;;;8.40;99.90;;;;;;5039529;28;19909;-78
2021/12/09 13:14:06;;;;;;;;;;;8.50;99.90;;;;;;5028930;28;20466;-77
2021/12/09 13:21:36;;;;;;;;;;;8.40;99.90;;;;;;5021780;28;20378;-79
2021/12/09 13:24:23;;;;;;;;;;;8.30;99.90;;;;;;5022931;28;19909;-80
2021/12/09 13:32:53;;;;;;;;;;;8.10;99.90;;;;;;5031052;28;19944;-80
2021/12/09 13:35:30;;;;;;;;;;;8.10;99.90;;;;;;5016491;28;19917;-81
2021/12/09 13:49:22;;;;;;;;;;;7.80;99.90;;;;;;5037944;28;19913;-80
2021/12/09 13:54:26;;;;;;;;;;;7.70;99.90;;;;;;5033586;28;19913;-79
2021/12/09 13:57:00;;;;;;;;;;;7.70;99.90;;;;;;5024091;28;19910;-83
2021/12/09 13:59:27;;;;;;;;;;;7.70;99.90;;;;;;5018881;28;19980;-82
2021/12/09 14:01:54;;;;;;;;;;;7.60;99.90;;;;;;5034649;28;19913;-79
2021/12/09 14:04:22;;;;;;;;;;;7.60;99.90;;;;;;5028162;28;20004;-80
2021/12/09 14:06:58;;;;;;;;;;;7.60;99.90;;;;;;5031128;28;19917;-79
2021/12/09 14:09:26;;;;;;;;;;;7.60;99.90;;;;;;5038211;28;19916;-80
2021/12/09 14:11:52;;;;;;;;;;;7.60;99.90;;;;;;5029834;28;19994;-79
2021/12/09 14:14:25;;;;;;;;;;;7.60;99.90;;;;;;5018004;28;20011;-79
2021/12/09 14:17:03;;;;;;;;;;;7.60;99.90;;;;;;5036249;28;20281;-79
2021/12/09 14:22:02;;;;;;;;;;;7.60;99.90;;;;;;5032837;28;19986;-82
2021/12/09 14:24:29;;;;;;;;;;;7.60;99.90;;;;;;5028640;28;20004;-83
2021/12/09 14:26:57;;;;;;;;;;;7.60;99.90;;;;;;5032931;28;19917;-81
2021/12/09 14:29:24;;;;;;;;;;;7.60;99.90;;;;;;5014872;28;19964;-81
2021/12/09 14:31:51;;;;;;;;;;;7.60;99.90;;;;;;5020266;28;19959;-81
2021/12/09 14:34:17;;;;;;;;;;;7.70;99.90;;;;;;5022931;28;19979;-81
2021/12/09 14:36:45;;;;;;;;;;;7.80;99.90;;;;;;5033596;28;19909;-81
2021/12/09 14:39:13;;;;;;;;;;;7.70;99.90;;;;;;5019286;28;19913;-81
2021/12/09 14:41:38;;;;;;;;;;;7.70;99.90;;;;;;5029055;28;20280;-83
2021/12/09 14:44:06;;;;;;;;;;;7.70;99.90;;;;;;5037801;28;19964;-83
2021/12/09 14:46:36;;;;;;;;;;;7.70;99.90;;;;;;5019133;28;20009;-81
2021/12/09 14:49:22;;;;;;;;;;;7.70;99.90;;;;;;5018313;28;20326;-80
2021/12/09 14:51:49;;;;;;;;;;;7.70;99.90;;;;;;5013360;28;19917;-80
2021/12/09 14:54:16;;;;;;;;;;;7.70;99.90;;;;;;5037056;28;19940;-80
2021/12/09 14:56:42;;;;;;;;;;;7.70;99.90;;;;;;5036186;28;19913;-80
2021/12/09 14:59:25;;;;;;;;;;;7.70;99.90;;;;;;5036751;28;19959;-80
2021/12/09 15:02:09;;;;;;;;;;;7.60;99.90;;;;;;5036526;28;20356;-80
2021/12/09 15:04:44;;;;;;;;;;;7.60;99.90;;;;;;5037017;28;19976;-80
2021/12/09 15:07:34;;;;;;;;;;;7.50;99.90;;;;;;5037648;28;19913;-81
2021/12/09 15:10:02;;;;;;;;;;;7.60;99.90;;;;;;5019739;28;19909;-80
2021/12/09 15:12:36;;;;;;;;;;;7.50;99.90;;;;;;5037066;28;20028;-80
2021/12/09 15:15:03;;;;;;;;;;;7.50;99.90;;;;;;5033424;28;19946;-81
2021/12/09 15:17:29;;;;;;;;;;;7.50;99.90;;;;;;5016221;28;19937;-81
2021/12/09 15:19:58;;;;;;;;;;;7.50;99.90;;;;;;5021943;28;20312;-79
2021/12/09 15:22:25;;;;;;;;;;;7.50;99.90;;;;;;5019656;28;19913;-80
2021/12/09 15:25:01;;;;;;;;;;;7.50;99.90;;;;;;5036985;28;19922;-81
2021/12/09 15:27:50;;;;;;;;;;;7.40;99.90;;;;;;5036631;28;19913;-79
2021/12/09 15:30:16;;;;;;;;;;;7.40;99.90;;;;;;5026383;28;19917;-79
2021/12/09 15:32:58;;;;;;;;;;;7.30;99.90;;;;;;5036173;28;19913;-79
2021/12/09 15:35:24;;;;;;;;;;;7.30;99.90;;;;;;5033261;28;19917;-81
2021/12/09 15:37:50;;;;;;;;;;;7.20;99.90;;;;;;5034811;28;20377;-80
2021/12/09 15:40:17;;;;;;;;;;;7.20;99.90;;;;;;5032205;28;19999;-80
2021/12/09 15:42:43;;;;;;;;;;;7.20;99.90;;;;;;5012949;28;19909;-78
2021/12/09 15:45:09;;;;;;;;;;;7.10;99.90;;;;;;5031760;28;20012;-79
2021/12/09 15:47:35;;;;;;;;;;;7.10;99.90;;;;;;5032252;28;19940;-80
2021/12/09 15:50:05;;;;;;;;;;;7.10;99.90;;;;;;5036597;28;19913;-79
2021/12/09 15:52:38;;;;;;;;;;;7.00;99.90;;;;;;5031692;28;19952;-79
2021/12/09 15:55:06;;;;;;;;;;;6.90;99.90;;;;;;5037037;28;19916;-79